sensor_id;sensor_type;location;lat;lon;timestamp;P1;durP1;ratioP1;P2;durP2;ratioP2
77040;SDS011;65974;42.664;23.264;2023-06-05T00:00:59;12.45;;;9.07;;
77040;SDS011;65974;42.664;23.264;2023-06-05T00:03:25;12.38;;;9.52;;
77040;SDS011;65974;42.664;23.264;2023-06-05T00:05:52;14.70;;;9.70;;
77040;SDS011;65974;42.664;23.264;2023-06-05T00:08:17;12.88;;;9.82;;
77040;SDS011;65974;42.664;23.264;2023-06-05T00:10:43;12.20;;;9.55;;
77040;SDS011;65974;42.664;23.264;2023-06-05T00:13:09;15.30;;;9.77;;
77040;SDS011;65974;42.664;23.264;2023-06-05T00:15:34;15.90;;;9.63;;
77040;SDS011;65974;42.664;23.264;2023-06-05T00:18:01;14.10;;;10.38;;
77040;SDS011;65974;42.664;23.264;2023-06-05T00:20:27;14.25;;;10.40;;
77040;SDS011;65974;42.664;23.264;2023-06-05T00:22:53;11.35;;;8.18;;
77040;SDS011;65974;42.664;23.264;2023-06-05T00:25:20;15.10;;;10.02;;
77040;SDS011;65974;42.664;23.264;2023-06-05T00:27:45;11.93;;;9.52;;
77040;SDS011;65974;42.664;23.264;2023-06-05T00:30:11;18.42;;;9.80;;
77040;SDS011;65974;42.664;23.264;2023-06-05T00:32:37;13.70;;;9.70;;
77040;SDS011;65974;42.664;23.264;2023-06-05T00:35:03;15.18;;;9.52;;
77040;SDS011;65974;42.664;23.264;2023-06-05T00:37:29;15.55;;;9.80;;
77040;SDS011;65974;42.664;23.264;2023-06-05T00:39:55;15.38;;;10.57;;
77040;SDS011;65974;42.664;23.264;2023-06-05T00:42:20;13.95;;;9.50;;
77040;SDS011;65974;42.664;23.264;2023-06-05T00:44:46;14.98;;;10.27;;
77040;SDS011;65974;42.664;23.264;2023-06-05T00:47:13;15.40;;;9.77;;
77040;SDS011;65974;42.664;23.264;2023-06-05T00:49:40;16.42;;;10.15;;
77040;SDS011;65974;42.664;23.264;2023-06-05T00:52:06;19.10;;;10.70;;
77040;SDS011;65974;42.664;23.264;2023-06-05T00:54:32;17.92;;;11.43;;
77040;SDS011;65974;42.664;23.264;2023-06-05T00:56:58;19.35;;;10.70;;
77040;SDS011;65974;42.664;23.264;2023-06-05T00:59:25;18.65;;;10.95;;
77040;SDS011;65974;42.664;23.264;2023-06-05T01:01:51;16.63;;;12.05;;
77040;SDS011;65974;42.664;23.264;2023-06-05T01:04:18;17.30;;;10.75;;
77040;SDS011;65974;42.664;23.264;2023-06-05T01:06:43;15.93;;;10.77;;
77040;SDS011;65974;42.664;23.264;2023-06-05T01:09:10;12.98;;;9.88;;
77040;SDS011;65974;42.664;23.264;2023-06-05T01:11:52;17.40;;;11.15;;
77040;SDS011;65974;42.664;23.264;2023-06-05T01:14:21;18.65;;;10.93;;
77040;SDS011;65974;42.664;23.264;2023-06-05T01:16:51;17.55;;;10.00;;
77040;SDS011;65974;42.664;23.264;2023-06-05T01:19:21;17.60;;;11.57;;
77040;SDS011;65974;42.664;23.264;2023-06-05T01:21:53;15.55;;;10.35;;
77040;SDS011;65974;42.664;23.264;2023-06-05T01:24:28;18.60;;;10.70;;
77040;SDS011;65974;42.664;23.264;2023-06-05T01:35:19;21.42;;;10.40;;
77040;SDS011;65974;42.664;23.264;2023-06-05T01:37:47;13.50;;;9.32;;
77040;SDS011;65974;42.664;23.264;2023-06-05T01:40:19;13.70;;;8.38;;
77040;SDS011;65974;42.664;23.264;2023-06-05T01:42:47;13.82;;;9.75;;
77040;SDS011;65974;42.664;23.264;2023-06-05T01:45:13;14.95;;;10.38;;
77040;SDS011;65974;42.664;23.264;2023-06-05T01:47:41;19.73;;;11.30;;
77040;SDS011;65974;42.664;23.264;2023-06-05T01:50:07;18.00;;;12.35;;
77040;SDS011;65974;42.664;23.264;2023-06-05T01:52:34;17.58;;;11.88;;
77040;SDS011;65974;42.664;23.264;2023-06-05T01:55:03;19.35;;;12.05;;
77040;SDS011;65974;42.664;23.264;2023-06-05T01:57:29;17.00;;;11.75;;
77040;SDS011;65974;42.664;23.264;2023-06-05T01:59:56;14.55;;;10.90;;
77040;SDS011;65974;42.664;23.264;2023-06-05T02:02:21;15.45;;;11.05;;
77040;SDS011;65974;42.664;23.264;2023-06-05T02:04:47;16.60;;;11.55;;
77040;SDS011;65974;42.664;23.264;2023-06-05T02:07:13;18.77;;;12.65;;
77040;SDS011;65974;42.664;23.264;2023-06-05T02:09:42;16.30;;;10.30;;
77040;SDS011;65974;42.664;23.264;2023-06-05T02:12:07;15.68;;;11.57;;
77040;SDS011;65974;42.664;23.264;2023-06-05T02:14:33;17.92;;;12.55;;
77040;SDS011;65974;42.664;23.264;2023-06-05T02:17:03;21.20;;;12.25;;
77040;SDS011;65974;42.664;23.264;2023-06-05T02:19:32;15.30;;;10.98;;
77040;SDS011;65974;42.664;23.264;2023-06-05T02:21:58;17.10;;;11.63;;
77040;SDS011;65974;42.664;23.264;2023-06-05T02:24:23;15.70;;;11.43;;
77040;SDS011;65974;42.664;23.264;2023-06-05T02:26:50;15.20;;;10.88;;
77040;SDS011;65974;42.664;23.264;2023-06-05T02:29:16;18.55;;;10.80;;
77040;SDS011;65974;42.664;23.264;2023-06-05T02:31:42;16.67;;;11.40;;
77040;SDS011;65974;42.664;23.264;2023-06-05T02:34:07;16.52;;;11.48;;
77040;SDS011;65974;42.664;23.264;2023-06-05T02:36:33;20.00;;;11.18;;
77040;SDS011;65974;42.664;23.264;2023-06-05T02:39:00;15.88;;;10.40;;
77040;SDS011;65974;42.664;23.264;2023-06-05T02:41:27;16.70;;;11.48;;
77040;SDS011;65974;42.664;23.264;2023-06-05T02:43:53;14.15;;;10.13;;
77040;SDS011;65974;42.664;23.264;2023-06-05T02:46:20;14.55;;;11.00;;
77040;SDS011;65974;42.664;23.264;2023-06-05T02:48:46;17.48;;;11.52;;
77040;SDS011;65974;42.664;23.264;2023-06-05T02:51:12;14.15;;;10.35;;
77040;SDS011;65974;42.664;23.264;2023-06-05T02:53:37;15.27;;;10.07;;
77040;SDS011;65974;42.664;23.264;2023-06-05T02:56:03;16.77;;;11.02;;
77040;SDS011;65974;42.664;23.264;2023-06-05T02:58:29;15.75;;;10.40;;
77040;SDS011;65974;42.664;23.264;2023-06-05T03:00:56;17.58;;;11.13;;
77040;SDS011;65974;42.664;23.264;2023-06-05T03:03:26;14.07;;;9.77;;
77040;SDS011;65974;42.664;23.264;2023-06-05T03:05:58;16.40;;;10.48;;
77040;SDS011;65974;42.664;23.264;2023-06-05T03:08:32;17.38;;;10.50;;
77040;SDS011;65974;42.664;23.264;2023-06-05T03:11:02;17.10;;;11.30;;
77040;SDS011;65974;42.664;23.264;2023-06-05T03:13:28;18.13;;;11.77;;
77040;SDS011;65974;42.664;23.264;2023-06-05T03:15:55;16.63;;;11.90;;
77040;SDS011;65974;42.664;23.264;2023-06-05T03:18:28;19.92;;;11.48;;
77040;SDS011;65974;42.664;23.264;2023-06-05T03:20:56;14.30;;;11.20;;
77040;SDS011;65974;42.664;23.264;2023-06-05T03:23:22;19.25;;;11.18;;
77040;SDS011;65974;42.664;23.264;2023-06-05T03:25:48;18.83;;;11.93;;
77040;SDS011;65974;42.664;23.264;2023-06-05T03:28:14;19.80;;;12.07;;
77040;SDS011;65974;42.664;23.264;2023-06-05T03:30:39;19.90;;;11.35;;
77040;SDS011;65974;42.664;23.264;2023-06-05T03:33:05;17.98;;;12.18;;
77040;SDS011;65974;42.664;23.264;2023-06-05T03:35:31;18.08;;;12.45;;
77040;SDS011;65974;42.664;23.264;2023-06-05T03:37:57;16.45;;;11.32;;
77040;SDS011;65974;42.664;23.264;2023-06-05T03:40:23;22.50;;;12.75;;
77040;SDS011;65974;42.664;23.264;2023-06-05T03:42:49;16.95;;;10.98;;
77040;SDS011;65974;42.664;23.264;2023-06-05T03:45:15;17.15;;;11.55;;
77040;SDS011;65974;42.664;23.264;2023-06-05T03:47:40;20.25;;;11.55;;
77040;SDS011;65974;42.664;23.264;2023-06-05T03:50:06;21.98;;;13.20;;
77040;SDS011;65974;42.664;23.264;2023-06-05T03:52:32;22.13;;;12.70;;
77040;SDS011;65974;42.664;23.264;2023-06-05T03:54:57;17.50;;;13.32;;
77040;SDS011;65974;42.664;23.264;2023-06-05T03:57:25;33.38;;;18.13;;
77040;SDS011;65974;42.664;23.264;2023-06-05T03:59:50;24.63;;;13.50;;
77040;SDS011;65974;42.664;23.264;2023-06-05T04:02:16;20.55;;;13.68;;
77040;SDS011;65974;42.664;23.264;2023-06-05T04:04:41;21.95;;;13.80;;
77040;SDS011;65974;42.664;23.264;2023-06-05T04:07:07;22.60;;;13.93;;
77040;SDS011;65974;42.664;23.264;2023-06-05T04:09:32;23.52;;;14.27;;
77040;SDS011;65974;42.664;23.264;2023-06-05T04:11:58;19.50;;;13.20;;
77040;SDS011;65974;42.664;23.264;2023-06-05T04:14:25;22.38;;;14.70;;
77040;SDS011;65974;42.664;23.264;2023-06-05T04:16:50;20.52;;;13.90;;
77040;SDS011;65974;42.664;23.264;2023-06-05T04:19:16;18.45;;;12.98;;
77040;SDS011;65974;42.664;23.264;2023-06-05T04:21:42;19.83;;;14.75;;
77040;SDS011;65974;42.664;23.264;2023-06-05T04:24:08;20.25;;;12.73;;
77040;SDS011;65974;42.664;23.264;2023-06-05T04:26:36;20.50;;;14.23;;
77040;SDS011;65974;42.664;23.264;2023-06-05T04:29:03;27.63;;;14.63;;
77040;SDS011;65974;42.664;23.264;2023-06-05T04:31:35;19.15;;;13.90;;
77040;SDS011;65974;42.664;23.264;2023-06-05T04:34:00;22.05;;;13.23;;
77040;SDS011;65974;42.664;23.264;2023-06-05T04:36:27;20.25;;;13.63;;
77040;SDS011;65974;42.664;23.264;2023-06-05T04:38:53;24.73;;;14.82;;
77040;SDS011;65974;42.664;23.264;2023-06-05T04:41:19;23.00;;;14.40;;
77040;SDS011;65974;42.664;23.264;2023-06-05T04:43:46;21.98;;;14.32;;
77040;SDS011;65974;42.664;23.264;2023-06-05T04:46:12;26.05;;;14.13;;
77040;SDS011;65974;42.664;23.264;2023-06-05T04:48:37;24.88;;;15.77;;
77040;SDS011;65974;42.664;23.264;2023-06-05T04:51:03;24.25;;;15.23;;
77040;SDS011;65974;42.664;23.264;2023-06-05T04:53:29;23.73;;;14.63;;
77040;SDS011;65974;42.664;23.264;2023-06-05T04:55:56;21.98;;;15.23;;
77040;SDS011;65974;42.664;23.264;2023-06-05T04:58:26;25.05;;;15.90;;
77040;SDS011;65974;42.664;23.264;2023-06-05T05:00:51;26.65;;;15.48;;
77040;SDS011;65974;42.664;23.264;2023-06-05T05:03:17;30.40;;;17.27;;
77040;SDS011;65974;42.664;23.264;2023-06-05T05:05:43;24.60;;;16.17;;
77040;SDS011;65974;42.664;23.264;2023-06-05T05:08:08;27.38;;;16.30;;
77040;SDS011;65974;42.664;23.264;2023-06-05T05:10:34;25.17;;;16.75;;
77040;SDS011;65974;42.664;23.264;2023-06-05T05:13:01;27.08;;;18.45;;
77040;SDS011;65974;42.664;23.264;2023-06-05T05:15:27;26.45;;;16.90;;
77040;SDS011;65974;42.664;23.264;2023-06-05T05:17:54;26.58;;;17.58;;
77040;SDS011;65974;42.664;23.264;2023-06-05T05:20:22;29.08;;;17.20;;
77040;SDS011;65974;42.664;23.264;2023-06-05T05:22:48;31.80;;;20.05;;
77040;SDS011;65974;42.664;23.264;2023-06-05T05:25:14;35.13;;;19.33;;
77040;SDS011;65974;42.664;23.264;2023-06-05T05:27:40;28.48;;;18.17;;
77040;SDS011;65974;42.664;23.264;2023-06-05T05:30:06;26.98;;;17.20;;
77040;SDS011;65974;42.664;23.264;2023-06-05T05:32:32;35.40;;;20.35;;
77040;SDS011;65974;42.664;23.264;2023-06-05T05:34:57;27.50;;;18.30;;
77040;SDS011;65974;42.664;23.264;2023-06-05T05:37:23;28.92;;;17.33;;
77040;SDS011;65974;42.664;23.264;2023-06-05T05:39:48;25.15;;;17.15;;
77040;SDS011;65974;42.664;23.264;2023-06-05T05:42:14;25.23;;;17.10;;
77040;SDS011;65974;42.664;23.264;2023-06-05T05:44:40;24.85;;;16.83;;
77040;SDS011;65974;42.664;23.264;2023-06-05T05:47:09;24.83;;;16.70;;
77040;SDS011;65974;42.664;23.264;2023-06-05T05:49:35;23.05;;;15.65;;
77040;SDS011;65974;42.664;23.264;2023-06-05T05:52:01;26.20;;;15.70;;
77040;SDS011;65974;42.664;23.264;2023-06-05T05:54:27;26.70;;;16.65;;
77040;SDS011;65974;42.664;23.264;2023-06-05T05:56:53;23.27;;;16.08;;
77040;SDS011;65974;42.664;23.264;2023-06-05T05:59:19;28.25;;;16.67;;
77040;SDS011;65974;42.664;23.264;2023-06-05T06:01:44;24.52;;;15.35;;
77040;SDS011;65974;42.664;23.264;2023-06-05T06:04:10;26.98;;;15.32;;
77040;SDS011;65974;42.664;23.264;2023-06-05T06:06:36;31.02;;;17.35;;
77040;SDS011;65974;42.664;23.264;2023-06-05T06:09:03;24.73;;;16.10;;
77040;SDS011;65974;42.664;23.264;2023-06-05T06:11:29;29.83;;;16.02;;
77040;SDS011;65974;42.664;23.264;2023-06-05T06:13:55;25.88;;;15.93;;
77040;SDS011;65974;42.664;23.264;2023-06-05T06:16:21;25.88;;;14.85;;
77040;SDS011;65974;42.664;23.264;2023-06-05T06:18:47;24.25;;;15.77;;
77040;SDS011;65974;42.664;23.264;2023-06-05T06:21:12;23.73;;;15.65;;
77040;SDS011;65974;42.664;23.264;2023-06-05T06:23:38;29.80;;;16.58;;
77040;SDS011;65974;42.664;23.264;2023-06-05T06:26:04;20.92;;;14.88;;
77040;SDS011;65974;42.664;23.264;2023-06-05T06:28:31;21.70;;;13.38;;
77040;SDS011;65974;42.664;23.264;2023-06-05T06:30:57;18.35;;;13.73;;
77040;SDS011;65974;42.664;23.264;2023-06-05T06:33:23;22.55;;;14.93;;
77040;SDS011;65974;42.664;23.264;2023-06-05T06:35:49;20.20;;;13.82;;
77040;SDS011;65974;42.664;23.264;2023-06-05T06:38:15;19.80;;;14.98;;
77040;SDS011;65974;42.664;23.264;2023-06-05T06:40:41;20.38;;;13.13;;
77040;SDS011;65974;42.664;23.264;2023-06-05T06:43:07;18.58;;;12.88;;
77040;SDS011;65974;42.664;23.264;2023-06-05T06:45:32;23.77;;;14.48;;
77040;SDS011;65974;42.664;23.264;2023-06-05T06:47:58;21.45;;;14.35;;
77040;SDS011;65974;42.664;23.264;2023-06-05T06:50:23;26.40;;;13.60;;
77040;SDS011;65974;42.664;23.264;2023-06-05T06:52:49;21.40;;;13.88;;
77040;SDS011;65974;42.664;23.264;2023-06-05T06:55:14;21.05;;;12.88;;
77040;SDS011;65974;42.664;23.264;2023-06-05T06:57:41;21.85;;;12.27;;
77040;SDS011;65974;42.664;23.264;2023-06-05T07:00:06;18.27;;;12.32;;
77040;SDS011;65974;42.664;23.264;2023-06-05T07:02:35;20.38;;;13.38;;
77040;SDS011;65974;42.664;23.264;2023-06-05T07:05:01;22.83;;;13.32;;
77040;SDS011;65974;42.664;23.264;2023-06-05T07:07:26;18.95;;;11.77;;
77040;SDS011;65974;42.664;23.264;2023-06-05T07:09:53;20.92;;;13.05;;
77040;SDS011;65974;42.664;23.264;2023-06-05T07:12:18;23.38;;;14.40;;
77040;SDS011;65974;42.664;23.264;2023-06-05T07:14:47;23.92;;;13.18;;
77040;SDS011;65974;42.664;23.264;2023-06-05T07:17:13;23.42;;;14.02;;
77040;SDS011;65974;42.664;23.264;2023-06-05T07:19:39;18.60;;;12.15;;
77040;SDS011;65974;42.664;23.264;2023-06-05T07:22:05;21.25;;;13.18;;
77040;SDS011;65974;42.664;23.264;2023-06-05T07:24:31;22.13;;;13.20;;
77040;SDS011;65974;42.664;23.264;2023-06-05T07:26:59;17.30;;;12.18;;
77040;SDS011;65974;42.664;23.264;2023-06-05T07:29:25;21.25;;;13.25;;
77040;SDS011;65974;42.664;23.264;2023-06-05T07:31:52;17.65;;;12.68;;
77040;SDS011;65974;42.664;23.264;2023-06-05T07:34:20;19.63;;;13.85;;
77040;SDS011;65974;42.664;23.264;2023-06-05T07:36:47;20.65;;;13.85;;
77040;SDS011;65974;42.664;23.264;2023-06-05T07:39:16;21.67;;;13.90;;
77040;SDS011;65974;42.664;23.264;2023-06-05T07:41:42;17.98;;;12.88;;
77040;SDS011;65974;42.664;23.264;2023-06-05T07:44:13;20.20;;;13.63;;
77040;SDS011;65974;42.664;23.264;2023-06-05T07:46:42;21.88;;;12.88;;
77040;SDS011;65974;42.664;23.264;2023-06-05T07:49:09;23.38;;;13.70;;
77040;SDS011;65974;42.664;23.264;2023-06-05T07:51:35;19.63;;;13.00;;
77040;SDS011;65974;42.664;23.264;2023-06-05T07:54:08;20.67;;;12.93;;
77040;SDS011;65974;42.664;23.264;2023-06-05T07:56:35;18.75;;;12.80;;
77040;SDS011;65974;42.664;23.264;2023-06-05T07:59:01;26.98;;;16.67;;
77040;SDS011;65974;42.664;23.264;2023-06-05T08:01:28;21.85;;;13.90;;
77040;SDS011;65974;42.664;23.264;2023-06-05T08:03:55;21.27;;;13.10;;
77040;SDS011;65974;42.664;23.264;2023-06-05T08:06:21;21.85;;;14.57;;
77040;SDS011;65974;42.664;23.264;2023-06-05T08:08:49;21.60;;;12.80;;
77040;SDS011;65974;42.664;23.264;2023-06-05T08:11:15;24.40;;;14.15;;
77040;SDS011;65974;42.664;23.264;2023-06-05T08:13:40;22.33;;;13.52;;
77040;SDS011;65974;42.664;23.264;2023-06-05T08:16:05;22.08;;;13.52;;
77040;SDS011;65974;42.664;23.264;2023-06-05T08:18:31;20.70;;;13.15;;
77040;SDS011;65974;42.664;23.264;2023-06-05T08:20:57;19.58;;;13.60;;
77040;SDS011;65974;42.664;23.264;2023-06-05T08:23:22;24.20;;;13.70;;
77040;SDS011;65974;42.664;23.264;2023-06-05T08:25:48;20.35;;;12.90;;
77040;SDS011;65974;42.664;23.264;2023-06-05T08:28:14;22.27;;;13.15;;
77040;SDS011;65974;42.664;23.264;2023-06-05T08:30:40;19.90;;;12.35;;
77040;SDS011;65974;42.664;23.264;2023-06-05T08:33:06;21.15;;;13.80;;
77040;SDS011;65974;42.664;23.264;2023-06-05T08:35:32;21.52;;;14.40;;
77040;SDS011;65974;42.664;23.264;2023-06-05T08:37:57;21.38;;;13.48;;
77040;SDS011;65974;42.664;23.264;2023-06-05T08:40:23;19.65;;;11.63;;
77040;SDS011;65974;42.664;23.264;2023-06-05T08:42:53;19.73;;;12.25;;
77040;SDS011;65974;42.664;23.264;2023-06-05T08:45:19;22.20;;;13.40;;
77040;SDS011;65974;42.664;23.264;2023-06-05T08:47:44;22.52;;;12.48;;
77040;SDS011;65974;42.664;23.264;2023-06-05T08:50:15;17.98;;;11.52;;
77040;SDS011;65974;42.664;23.264;2023-06-05T08:52:41;19.05;;;12.82;;
77040;SDS011;65974;42.664;23.264;2023-06-05T08:55:08;17.98;;;12.35;;
77040;SDS011;65974;42.664;23.264;2023-06-05T08:57:34;18.42;;;11.40;;
77040;SDS011;65974;42.664;23.264;2023-06-05T09:00:03;21.88;;;13.43;;
77040;SDS011;65974;42.664;23.264;2023-06-05T09:02:33;19.20;;;12.55;;
77040;SDS011;65974;42.664;23.264;2023-06-05T09:04:58;20.45;;;11.68;;
77040;SDS011;65974;42.664;23.264;2023-06-05T09:07:26;19.20;;;12.68;;
77040;SDS011;65974;42.664;23.264;2023-06-05T09:09:55;17.10;;;12.52;;
77040;SDS011;65974;42.664;23.264;2023-06-05T09:12:20;20.80;;;12.77;;
77040;SDS011;65974;42.664;23.264;2023-06-05T09:14:46;19.45;;;12.63;;
77040;SDS011;65974;42.664;23.264;2023-06-05T09:17:12;19.60;;;13.80;;
77040;SDS011;65974;42.664;23.264;2023-06-05T09:19:39;23.05;;;14.38;;
77040;SDS011;65974;42.664;23.264;2023-06-05T09:22:09;20.25;;;13.73;;
77040;SDS011;65974;42.664;23.264;2023-06-05T09:24:39;20.05;;;14.20;;
77040;SDS011;65974;42.664;23.264;2023-06-05T09:27:12;23.13;;;14.10;;
77040;SDS011;65974;42.664;23.264;2023-06-05T09:29:42;18.63;;;13.30;;
77040;SDS011;65974;42.664;23.264;2023-06-05T09:32:18;18.10;;;11.35;;
77040;SDS011;65974;42.664;23.264;2023-06-05T09:34:54;20.35;;;12.90;;
77040;SDS011;65974;42.664;23.264;2023-06-05T09:37:34;22.10;;;13.73;;
77040;SDS011;65974;42.664;23.264;2023-06-05T09:40:00;20.50;;;13.00;;
77040;SDS011;65974;42.664;23.264;2023-06-05T09:42:32;19.45;;;12.25;;
77040;SDS011;65974;42.664;23.264;2023-06-05T09:44:58;23.13;;;12.68;;
77040;SDS011;65974;42.664;23.264;2023-06-05T09:47:25;22.30;;;14.63;;
77040;SDS011;65974;42.664;23.264;2023-06-05T09:49:50;22.58;;;14.20;;
77040;SDS011;65974;42.664;23.264;2023-06-05T09:52:17;16.02;;;11.50;;
77040;SDS011;65974;42.664;23.264;2023-06-05T09:54:43;18.70;;;12.60;;
77040;SDS011;65974;42.664;23.264;2023-06-05T09:57:11;22.20;;;12.48;;
77040;SDS011;65974;42.664;23.264;2023-06-05T09:59:42;19.50;;;12.40;;
77040;SDS011;65974;42.664;23.264;2023-06-05T10:02:16;20.08;;;11.65;;
77040;SDS011;65974;42.664;23.264;2023-06-05T10:04:58;19.55;;;11.18;;
77040;SDS011;65974;42.664;23.264;2023-06-05T10:07:26;20.55;;;11.65;;
77040;SDS011;65974;42.664;23.264;2023-06-05T10:09:52;17.83;;;11.57;;
77040;SDS011;65974;42.664;23.264;2023-06-05T10:12:19;17.42;;;11.30;;
77040;SDS011;65974;42.664;23.264;2023-06-05T10:14:45;17.02;;;11.00;;
77040;SDS011;65974;42.664;23.264;2023-06-05T10:17:13;18.48;;;13.10;;
77040;SDS011;65974;42.664;23.264;2023-06-05T10:19:43;18.83;;;11.82;;
77040;SDS011;65974;42.664;23.264;2023-06-05T10:22:12;20.58;;;12.68;;
77040;SDS011;65974;42.664;23.264;2023-06-05T10:24:42;22.30;;;11.80;;
77040;SDS011;65974;42.664;23.264;2023-06-05T10:27:18;19.90;;;11.20;;
77040;SDS011;65974;42.664;23.264;2023-06-05T10:35:39;16.13;;;10.32;;
77040;SDS011;65974;42.664;23.264;2023-06-05T10:38:27;14.45;;;9.57;;
77040;SDS011;65974;42.664;23.264;2023-06-05T10:43:27;15.48;;;7.63;;
77040;SDS011;65974;42.664;23.264;2023-06-05T10:45:56;13.50;;;8.73;;
77040;SDS011;65974;42.664;23.264;2023-06-05T10:51:31;13.55;;;9.00;;
77040;SDS011;65974;42.664;23.264;2023-06-05T10:53:58;13.95;;;8.85;;
77040;SDS011;65974;42.664;23.264;2023-06-05T10:59:34;12.23;;;7.25;;
77040;SDS011;65974;42.664;23.264;2023-06-05T11:05:01;13.85;;;8.38;;
77040;SDS011;65974;42.664;23.264;2023-06-05T11:15:11;14.18;;;8.80;;
77040;SDS011;65974;42.664;23.264;2023-06-05T11:20:08;11.55;;;7.47;;
77040;SDS011;65974;42.664;23.264;2023-06-05T11:28:01;12.95;;;7.78;;
77040;SDS011;65974;42.664;23.264;2023-06-05T11:30:42;12.45;;;7.30;;
77040;SDS011;65974;42.664;23.264;2023-06-05T11:33:08;11.43;;;6.60;;
77040;SDS011;65974;42.664;23.264;2023-06-05T11:35:37;8.45;;;5.53;;
77040;SDS011;65974;42.664;23.264;2023-06-05T11:38:10;12.20;;;6.82;;
77040;SDS011;65974;42.664;23.264;2023-06-05T11:40:37;9.30;;;6.40;;
77040;SDS011;65974;42.664;23.264;2023-06-05T11:43:04;12.00;;;6.50;;
77040;SDS011;65974;42.664;23.264;2023-06-05T11:45:32;13.38;;;6.97;;
77040;SDS011;65974;42.664;23.264;2023-06-05T11:50:34;9.50;;;7.00;;
77040;SDS011;65974;42.664;23.264;2023-06-05T11:53:06;11.05;;;6.13;;
77040;SDS011;65974;42.664;23.264;2023-06-05T11:55:33;10.40;;;6.55;;
77040;SDS011;65974;42.664;23.264;2023-06-05T11:58:23;9.45;;;6.63;;
77040;SDS011;65974;42.664;23.264;2023-06-05T12:00:50;11.30;;;6.25;;
77040;SDS011;65974;42.664;23.264;2023-06-05T12:03:19;12.68;;;6.25;;
77040;SDS011;65974;42.664;23.264;2023-06-05T12:05:46;10.50;;;6.28;;
77040;SDS011;65974;42.664;23.264;2023-06-05T12:10:52;10.40;;;6.88;;
77040;SDS011;65974;42.664;23.264;2023-06-05T12:13:18;9.15;;;5.90;;
77040;SDS011;65974;42.664;23.264;2023-06-05T12:15:55;8.80;;;5.68;;
77040;SDS011;65974;42.664;23.264;2023-06-05T12:18:31;10.02;;;5.97;;
77040;SDS011;65974;42.664;23.264;2023-06-05T12:20:59;10.43;;;6.45;;
77040;SDS011;65974;42.664;23.264;2023-06-05T12:23:26;9.73;;;6.18;;
77040;SDS011;65974;42.664;23.264;2023-06-05T12:25:59;10.38;;;5.95;;
77040;SDS011;65974;42.664;23.264;2023-06-05T12:28:26;9.13;;;6.03;;
77040;SDS011;65974;42.664;23.264;2023-06-05T12:30:53;11.38;;;6.53;;
77040;SDS011;65974;42.664;23.264;2023-06-05T12:33:18;9.00;;;5.68;;
77040;SDS011;65974;42.664;23.264;2023-06-05T12:35:46;8.70;;;6.05;;
77040;SDS011;65974;42.664;23.264;2023-06-05T12:38:11;7.75;;;5.90;;
77040;SDS011;65974;42.664;23.264;2023-06-05T12:40:37;10.88;;;6.75;;
77040;SDS011;65974;42.664;23.264;2023-06-05T12:43:02;11.63;;;5.97;;
77040;SDS011;65974;42.664;23.264;2023-06-05T12:45:28;10.38;;;7.07;;
77040;SDS011;65974;42.664;23.264;2023-06-05T12:47:55;9.15;;;7.10;;
77040;SDS011;65974;42.664;23.264;2023-06-05T12:50:22;9.30;;;5.90;;
77040;SDS011;65974;42.664;23.264;2023-06-05T12:52:47;6.75;;;5.38;;
77040;SDS011;65974;42.664;23.264;2023-06-05T12:55:13;9.77;;;5.65;;
77040;SDS011;65974;42.664;23.264;2023-06-05T12:57:38;9.55;;;5.82;;
77040;SDS011;65974;42.664;23.264;2023-06-05T13:00:04;7.45;;;5.60;;
77040;SDS011;65974;42.664;23.264;2023-06-05T13:02:38;11.43;;;5.88;;
77040;SDS011;65974;42.664;23.264;2023-06-05T13:05:08;8.30;;;5.25;;
77040;SDS011;65974;42.664;23.264;2023-06-05T13:07:34;10.52;;;5.75;;
77040;SDS011;65974;42.664;23.264;2023-06-05T13:10:02;9.95;;;6.60;;
77040;SDS011;65974;42.664;23.264;2023-06-05T13:12:30;7.13;;;5.68;;
77040;SDS011;65974;42.664;23.264;2023-06-05T13:14:56;8.55;;;5.75;;
77040;SDS011;65974;42.664;23.264;2023-06-05T13:17:21;8.13;;;5.53;;
77040;SDS011;65974;42.664;23.264;2023-06-05T13:19:48;8.35;;;6.40;;
77040;SDS011;65974;42.664;23.264;2023-06-05T13:22:14;8.18;;;5.47;;
77040;SDS011;65974;42.664;23.264;2023-06-05T13:24:40;10.35;;;6.53;;
77040;SDS011;65974;42.664;23.264;2023-06-05T13:27:05;9.27;;;5.82;;
77040;SDS011;65974;42.664;23.264;2023-06-05T13:29:31;10.60;;;6.05;;
77040;SDS011;65974;42.664;23.264;2023-06-05T13:31:56;8.80;;;5.22;;
77040;SDS011;65974;42.664;23.264;2023-06-05T13:34:22;13.88;;;5.43;;
77040;SDS011;65974;42.664;23.264;2023-06-05T13:36:47;8.90;;;6.13;;
77040;SDS011;65974;42.664;23.264;2023-06-05T13:39:13;7.47;;;5.28;;
77040;SDS011;65974;42.664;23.264;2023-06-05T13:41:39;5.57;;;4.53;;
77040;SDS011;65974;42.664;23.264;2023-06-05T13:44:05;9.45;;;6.50;;
77040;SDS011;65974;42.664;23.264;2023-06-05T13:46:31;7.53;;;5.45;;
77040;SDS011;65974;42.664;23.264;2023-06-05T13:48:56;7.82;;;5.38;;
77040;SDS011;65974;42.664;23.264;2023-06-05T13:51:25;9.73;;;4.65;;
77040;SDS011;65974;42.664;23.264;2023-06-05T13:53:54;7.60;;;4.70;;
77040;SDS011;65974;42.664;23.264;2023-06-05T13:56:22;7.05;;;4.90;;
77040;SDS011;65974;42.664;23.264;2023-06-05T13:58:47;7.13;;;5.43;;
77040;SDS011;65974;42.664;23.264;2023-06-05T14:01:13;7.57;;;4.47;;
77040;SDS011;65974;42.664;23.264;2023-06-05T14:03:38;10.25;;;5.63;;
77040;SDS011;65974;42.664;23.264;2023-06-05T14:06:04;7.15;;;5.03;;
77040;SDS011;65974;42.664;23.264;2023-06-05T14:08:30;8.73;;;5.25;;
77040;SDS011;65974;42.664;23.264;2023-06-05T14:10:58;7.47;;;5.40;;
77040;SDS011;65974;42.664;23.264;2023-06-05T14:13:23;10.68;;;4.78;;
77040;SDS011;65974;42.664;23.264;2023-06-05T14:15:49;11.50;;;5.60;;
77040;SDS011;65974;42.664;23.264;2023-06-05T14:18:14;6.90;;;5.07;;
77040;SDS011;65974;42.664;23.264;2023-06-05T14:20:40;10.30;;;5.53;;
77040;SDS011;65974;42.664;23.264;2023-06-05T14:23:05;7.82;;;5.20;;
77040;SDS011;65974;42.664;23.264;2023-06-05T14:25:31;6.82;;;5.75;;
77040;SDS011;65974;42.664;23.264;2023-06-05T14:27:56;12.48;;;5.47;;
77040;SDS011;65974;42.664;23.264;2023-06-05T14:30:23;7.53;;;5.20;;
77040;SDS011;65974;42.664;23.264;2023-06-05T14:32:49;8.98;;;5.95;;
77040;SDS011;65974;42.664;23.264;2023-06-05T14:35:15;8.35;;;6.22;;
77040;SDS011;65974;42.664;23.264;2023-06-05T14:37:41;8.63;;;5.65;;
77040;SDS011;65974;42.664;23.264;2023-06-05T14:40:08;9.07;;;5.47;;
77040;SDS011;65974;42.664;23.264;2023-06-05T14:42:34;7.72;;;5.93;;
77040;SDS011;65974;42.664;23.264;2023-06-05T14:45:00;10.48;;;6.38;;
77040;SDS011;65974;42.664;23.264;2023-06-05T14:47:25;7.40;;;5.68;;
77040;SDS011;65974;42.664;23.264;2023-06-05T14:49:50;9.13;;;7.20;;
77040;SDS011;65974;42.664;23.264;2023-06-05T14:52:16;11.07;;;6.82;;
77040;SDS011;65974;42.664;23.264;2023-06-05T14:54:41;9.48;;;7.07;;
77040;SDS011;65974;42.664;23.264;2023-06-05T14:57:07;8.32;;;6.50;;
77040;SDS011;65974;42.664;23.264;2023-06-05T14:59:33;9.23;;;6.53;;
77040;SDS011;65974;42.664;23.264;2023-06-05T15:01:59;9.13;;;6.35;;